createdAt,value
2019-05-05T00:01:11.827Z,7.80
2019-05-05T00:03:57.621Z,7.80
2019-05-05T00:06:27.261Z,7.80
2019-05-05T00:08:58.001Z,7.80
2019-05-05T00:11:28.917Z,7.70
2019-05-05T00:14:04.562Z,7.80
2019-05-05T00:16:45.685Z,7.70
2019-05-05T00:19:28.793Z,7.70
2019-05-05T00:21:46.121Z,7.70
2019-05-05T00:24:15.478Z,7.80
2019-05-05T00:26:46.051Z,7.80
2019-05-05T00:29:21.939Z,7.80
2019-05-05T00:31:50.957Z,7.80
2019-05-05T00:34:21.136Z,7.80
2019-05-05T00:36:50.214Z,7.80
2019-05-05T00:39:19.378Z,7.80
2019-05-05T00:41:49.035Z,7.80
2019-05-05T00:44:18.422Z,7.80
2019-05-05T00:46:58.055Z,7.80
2019-05-05T00:49:37.394Z,7.80
2019-05-05T00:52:01.476Z,7.70
2019-05-05T00:54:30.945Z,7.70
2019-05-05T00:57:04.456Z,7.70
2019-05-05T00:59:35.576Z,7.70
2019-05-05T01:02:06.477Z,7.70
2019-05-05T01:04:55.899Z,7.60
2019-05-05T01:07:25.800Z,7.60
2019-05-05T01:09:55.897Z,7.60
2019-05-05T01:12:26.977Z,7.60
2019-05-05T01:14:56.597Z,7.60
2019-05-05T01:17:29.236Z,7.60
2019-05-05T01:20:04.094Z,7.60
2019-05-05T01:22:31.196Z,7.50
2019-05-05T01:25:00.549Z,7.50
2019-05-05T01:27:31.638Z,7.50
2019-05-05T01:30:01.777Z,7.50
2019-05-05T01:32:35.575Z,7.40
2019-05-05T01:35:10.836Z,7.40
2019-05-05T01:37:54.845Z,7.40
2019-05-05T01:40:27.521Z,7.40
2019-05-05T01:42:57.395Z,7.40
2019-05-05T01:45:27.996Z,7.40
2019-05-05T01:47:58.078Z,7.30
2019-05-05T01:50:29.076Z,7.30
2019-05-05T01:53:04.623Z,7.30
2019-05-05T01:55:35.315Z,7.30
2019-05-05T01:58:05.675Z,7.30
2019-05-05T02:00:35.468Z,7.30
2019-05-05T02:03:08.796Z,7.30
2019-05-05T02:05:38.276Z,7.30
2019-05-05T02:08:07.636Z,7.20
2019-05-05T02:10:37.276Z,7.20
2019-05-05T02:13:09.339Z,7.20
2019-05-05T02:15:38.738Z,7.10
2019-05-05T02:18:08.697Z,7.10
2019-05-05T02:20:45.738Z,7.10
2019-05-05T02:23:16.977Z,7.00
2019-05-05T02:25:47.956Z,7.00
2019-05-05T02:28:17.901Z,7.00
2019-05-05T02:30:51.798Z,7.00
2019-05-05T02:33:25.873Z,7.00
2019-05-05T02:35:55.696Z,7.00
2019-05-05T02:38:26.110Z,7.00
2019-05-05T02:40:56.956Z,7.00
2019-05-05T02:43:27.877Z,6.90
2019-05-05T02:46:18.840Z,6.90
2019-05-05T02:48:51.059Z,6.90
2019-05-05T02:51:25.662Z,6.90
2019-05-05T02:53:57.096Z,6.80
2019-05-05T02:56:44.501Z,6.80
2019-05-05T02:59:20.138Z,6.70
2019-05-05T03:01:54.121Z,6.70
2019-05-05T03:04:27.257Z,6.60
2019-05-05T03:06:57.476Z,6.60
2019-05-05T03:09:31.135Z,6.50
2019-05-05T03:12:05.614Z,6.50
2019-05-05T03:14:37.139Z,6.40
2019-05-05T03:17:11.675Z,6.40
2019-05-05T03:19:41.537Z,6.30
2019-05-05T03:22:14.270Z,6.30
2019-05-05T03:24:44.667Z,6.20
2019-05-05T03:27:14.736Z,6.10
2019-05-05T03:29:44.313Z,6.00
2019-05-05T03:32:16.185Z,6.00
2019-05-05T03:34:49.154Z,5.90
2019-05-05T03:37:19.594Z,5.90
2019-05-05T03:39:50.955Z,5.80
2019-05-05T03:42:22.036Z,5.70
2019-05-05T03:45:04.481Z,5.60
2019-05-05T03:47:33.915Z,5.60
2019-05-05T03:50:07.274Z,5.60
2019-05-05T03:52:37.394Z,5.50
2019-05-05T03:55:08.355Z,5.50
2019-05-05T03:57:40.954Z,5.50
2019-05-05T04:00:10.684Z,5.40
2019-05-05T04:02:47.480Z,5.40
2019-05-05T04:05:37.356Z,5.40
2019-05-05T04:08:06.516Z,5.30
2019-05-05T04:10:36.437Z,5.20
2019-05-05T04:13:07.669Z,5.20
2019-05-05T04:15:38.836Z,5.20
2019-05-05T04:18:14.483Z,5.10
2019-05-05T04:20:44.173Z,5.00
2019-05-05T04:23:14.736Z,5.00
2019-05-05T04:25:44.176Z,5.00
2019-05-05T04:28:13.693Z,5.00
2019-05-05T04:30:44.465Z,5.00
2019-05-05T04:33:14.512Z,5.00
2019-05-05T04:35:45.482Z,4.90
2019-05-05T04:38:14.701Z,4.90
2019-05-05T04:40:47.302Z,4.90
2019-05-05T04:43:18.021Z,4.90
2019-05-05T04:45:48.655Z,4.80
2019-05-05T04:48:19.894Z,4.80
2019-05-05T04:50:51.159Z,4.80
2019-05-05T04:53:28.139Z,4.80
2019-05-05T04:55:59.596Z,4.70
2019-05-05T04:58:29.554Z,4.70
2019-05-05T05:00:59.309Z,4.60
2019-05-05T05:03:43.901Z,4.60
2019-05-05T05:06:17.769Z,4.60
2019-05-05T05:08:49.923Z,4.60
2019-05-05T05:11:21.337Z,4.60
2019-05-05T05:13:54.375Z,4.60
2019-05-05T05:16:24.252Z,4.60
2019-05-05T05:18:54.176Z,4.60
2019-05-05T05:21:23.764Z,4.60
2019-05-05T05:23:53.602Z,4.60
2019-05-05T05:26:24.221Z,4.60
2019-05-05T05:28:54.335Z,4.50
2019-05-05T05:31:24.517Z,4.60
2019-05-05T05:33:54.960Z,4.60
2019-05-05T05:36:24.903Z,4.60
2019-05-05T05:38:56.215Z,4.60
2019-05-05T05:41:43.856Z,4.60
2019-05-05T05:44:35.135Z,4.70
2019-05-05T05:47:06.476Z,4.70
2019-05-05T05:49:37.716Z,4.70
2019-05-05T05:52:16.281Z,4.80
2019-05-05T05:54:38.136Z,4.80
2019-05-05T05:57:07.603Z,4.80
2019-05-05T05:59:41.315Z,4.90
2019-05-05T06:02:14.785Z,4.90
2019-05-05T06:04:41.755Z,4.90
2019-05-05T06:07:11.216Z,4.90
2019-05-05T06:09:40.895Z,4.90
2019-05-05T06:12:10.738Z,4.90
2019-05-05T06:14:40.439Z,5.00
2019-05-05T06:17:10.426Z,5.00
2019-05-05T06:19:39.938Z,5.10
2019-05-05T06:22:09.479Z,5.20
2019-05-05T06:24:39.990Z,5.20
2019-05-05T06:27:09.763Z,5.30
2019-05-05T06:29:38.999Z,5.20
2019-05-05T06:32:08.600Z,5.30
2019-05-05T06:34:38.128Z,5.30
2019-05-05T06:37:07.483Z,5.30
2019-05-05T06:39:37.439Z,5.30
2019-05-05T06:42:26.839Z,5.20
2019-05-05T06:45:01.587Z,5.20
2019-05-05T06:47:33.997Z,5.10
2019-05-05T06:50:03.734Z,5.20
2019-05-05T06:52:43.780Z,5.10
2019-05-05T06:55:05.148Z,5.10
2019-05-05T06:57:34.647Z,5.10
2019-05-05T07:00:09.037Z,5.10
2019-05-05T07:02:39.505Z,5.10
2019-05-05T07:05:09.558Z,5.10
2019-05-05T07:07:39.775Z,5.10
2019-05-05T07:10:10.818Z,5.10
2019-05-05T07:12:40.719Z,5.10
2019-05-05T07:15:14.633Z,5.10
2019-05-05T07:17:44.272Z,5.10
2019-05-05T07:20:17.500Z,5.10
2019-05-05T07:22:58.904Z,5.20
2019-05-05T07:25:17.467Z,5.20
2019-05-05T07:27:46.785Z,5.10
2019-05-05T07:30:19.525Z,5.10
2019-05-05T07:32:49.439Z,5.20
2019-05-05T07:35:20.800Z,5.20
2019-05-05T07:37:49.799Z,5.20
2019-05-05T07:40:19.279Z,5.20
2019-05-05T07:42:51.399Z,5.30
2019-05-05T07:45:25.154Z,5.30
2019-05-05T07:47:51.505Z,5.30
2019-05-05T07:50:31.156Z,5.40
2019-05-05T07:52:54.414Z,5.50
2019-05-05T07:55:23.907Z,5.60
2019-05-05T07:57:53.879Z,5.60
2019-05-05T08:00:28.362Z,5.60
2019-05-05T08:02:58.322Z,5.70
2019-05-05T08:05:27.782Z,5.80
2019-05-05T08:07:58.831Z,5.90
2019-05-05T08:10:28.087Z,5.90
2019-05-05T08:12:57.883Z,5.90
2019-05-05T08:15:28.299Z,6.00
2019-05-05T08:17:59.064Z,6.00
2019-05-05T08:20:33.894Z,6.00
2019-05-05T08:23:04.292Z,6.00
2019-05-05T08:25:39.969Z,6.00
2019-05-05T08:28:11.339Z,6.10
2019-05-05T08:30:44.164Z,6.20
2019-05-05T08:33:14.160Z,6.20
2019-05-05T08:35:44.909Z,6.20
2019-05-05T08:38:14.242Z,6.30
2019-05-05T08:40:44.039Z,6.40
2019-05-05T08:43:13.905Z,6.30
2019-05-05T08:45:44.348Z,6.30
2019-05-05T08:48:14.340Z,6.30
2019-05-05T08:50:44.359Z,6.40
2019-05-05T08:53:14.026Z,6.40
2019-05-05T08:55:44.311Z,6.40
2019-05-05T08:58:14.917Z,6.50
2019-05-05T09:00:44.764Z,6.50
2019-05-05T09:03:14.083Z,6.50
2019-05-05T09:05:43.859Z,6.60
2019-05-05T09:08:13.791Z,6.70
2019-05-05T09:10:44.783Z,6.80
2019-05-05T09:13:16.080Z,6.90
2019-05-05T09:15:46.199Z,7.00
2019-05-05T09:18:15.512Z,7.00
2019-05-05T09:20:49.441Z,7.00
2019-05-05T09:23:24.019Z,7.00
2019-05-05T09:26:09.549Z,6.90
2019-05-05T09:28:40.902Z,6.90
2019-05-05T09:31:10.146Z,6.90
2019-05-05T09:33:39.175Z,7.00
2019-05-05T09:36:09.183Z,7.20
2019-05-05T09:38:41.977Z,7.30
2019-05-05T09:41:11.665Z,7.40
2019-05-05T09:43:41.181Z,7.40
2019-05-05T09:46:10.983Z,7.40
2019-05-05T09:48:40.261Z,7.40
2019-05-05T09:51:13.553Z,7.50
2019-05-05T09:53:44.818Z,7.60
2019-05-05T09:56:14.682Z,7.50
2019-05-05T09:58:44.603Z,7.50
2019-05-05T10:01:14.563Z,7.50
2019-05-05T10:03:46.162Z,7.50
2019-05-05T10:06:15.767Z,7.50
2019-05-05T10:08:45.482Z,7.50
2019-05-05T10:11:16.622Z,7.50
2019-05-05T10:13:46.801Z,7.50
2019-05-05T10:16:16.522Z,7.60
2019-05-05T10:18:46.321Z,7.60
2019-05-05T10:21:17.710Z,7.60
2019-05-05T10:23:48.305Z,7.70
2019-05-05T10:26:17.560Z,7.80
2019-05-05T10:28:46.955Z,7.80
2019-05-05T10:31:16.762Z,7.70
2019-05-05T10:33:53.827Z,7.80
2019-05-05T10:36:24.492Z,7.80
2019-05-05T10:39:04.668Z,7.90
2019-05-05T10:41:34.345Z,7.90
2019-05-05T10:44:03.749Z,7.90
2019-05-05T10:46:34.134Z,8.00
2019-05-05T10:49:03.821Z,8.10
2019-05-05T10:51:34.635Z,8.00
2019-05-05T10:54:04.081Z,7.90
2019-05-05T10:56:34.529Z,7.80
2019-05-05T10:59:04.018Z,7.70
2019-05-05T11:01:33.381Z,7.80
2019-05-05T11:04:05.560Z,7.80
2019-05-05T11:06:35.562Z,7.80
2019-05-05T11:09:07.033Z,7.70
2019-05-05T11:11:36.646Z,7.70
2019-05-05T11:14:06.220Z,7.70
2019-05-05T11:16:35.460Z,7.70
2019-05-05T11:19:05.881Z,7.50
2019-05-05T11:21:35.088Z,7.50
2019-05-05T11:24:04.364Z,7.50
2019-05-05T11:26:33.959Z,7.50
2019-05-05T11:29:04.242Z,7.40
2019-05-05T11:31:34.364Z,7.40
2019-05-05T11:34:11.419Z,7.40
2019-05-05T11:36:48.180Z,7.30
2019-05-05T11:39:17.341Z,7.30
2019-05-05T11:41:46.330Z,7.30
2019-05-05T11:44:15.548Z,7.30
2019-05-05T11:46:47.462Z,7.30
2019-05-05T11:49:18.519Z,7.30
2019-05-05T11:51:47.570Z,7.30
2019-05-05T11:54:16.905Z,7.40
2019-05-05T11:56:45.966Z,7.40
2019-05-05T11:59:15.100Z,7.40
2019-05-05T12:01:44.566Z,7.40
2019-05-05T12:04:19.621Z,7.40
2019-05-05T12:06:51.763Z,7.40
2019-05-05T12:09:24.583Z,7.40
2019-05-05T12:11:56.444Z,7.40
2019-05-05T12:14:27.682Z,7.40
2019-05-05T12:16:57.624Z,7.40
2019-05-05T12:19:26.998Z,7.30
2019-05-05T12:21:56.426Z,7.30
2019-05-05T12:24:28.659Z,7.30
2019-05-05T12:27:14.108Z,7.30
2019-05-05T12:29:46.222Z,7.30
2019-05-05T12:32:15.965Z,7.20
2019-05-05T12:34:45.161Z,7.20
2019-05-05T12:37:14.446Z,7.20
2019-05-05T12:39:45.842Z,7.20
2019-05-05T12:42:16.328Z,7.20
2019-05-05T12:44:53.793Z,7.10
2019-05-05T12:47:30.800Z,7.10
2019-05-05T12:50:00.082Z,7.10
2019-05-05T12:52:29.434Z,7.10
2019-05-05T12:55:01.710Z,7.00
2019-05-05T12:57:29.939Z,6.90
2019-05-05T12:59:59.959Z,7.00
2019-05-05T13:02:30.254Z,7.00
2019-05-05T13:05:01.587Z,7.00
2019-05-05T13:07:33.852Z,7.00
2019-05-05T13:10:04.802Z,7.00
2019-05-05T13:12:34.457Z,7.00
2019-05-05T13:15:05.806Z,7.00
2019-05-05T13:17:35.946Z,7.00
2019-05-05T13:20:07.826Z,7.00
2019-05-05T13:22:39.982Z,7.10
2019-05-05T13:25:11.300Z,7.10
2019-05-05T13:27:42.200Z,7.00
2019-05-05T13:30:11.701Z,7.00
2019-05-05T13:32:41.118Z,7.00
2019-05-05T13:35:13.804Z,6.90
2019-05-05T13:37:44.255Z,6.90
2019-05-05T13:40:13.437Z,6.90
2019-05-05T13:42:45.514Z,6.90
2019-05-05T13:45:17.421Z,6.90
2019-05-05T13:47:46.846Z,7.00
2019-05-05T13:50:17.857Z,7.00
2019-05-05T13:52:49.662Z,7.10
2019-05-05T13:55:24.106Z,7.00
2019-05-05T13:57:54.919Z,7.00
2019-05-05T14:00:28.586Z,7.00
2019-05-05T14:02:58.145Z,7.10
2019-05-05T14:05:31.115Z,7.00
2019-05-05T14:08:04.028Z,7.00
2019-05-05T14:10:34.560Z,7.00
2019-05-05T14:13:04.774Z,7.00
2019-05-05T14:15:34.599Z,6.90
2019-05-05T14:18:04.119Z,6.90
2019-05-05T14:20:38.180Z,6.90
2019-05-05T14:23:07.862Z,6.90
2019-05-05T14:25:36.963Z,6.90
2019-05-05T14:28:06.960Z,6.90
2019-05-05T14:30:37.944Z,6.90
2019-05-05T14:33:20.907Z,6.90
2019-05-05T14:36:04.655Z,6.80
2019-05-05T14:38:39.009Z,6.70
2019-05-05T14:41:09.067Z,6.70
2019-05-05T14:43:40.740Z,6.70
2019-05-05T14:46:14.607Z,6.60
2019-05-05T14:48:45.487Z,6.60
2019-05-05T14:51:18.626Z,6.50
2019-05-05T14:53:49.546Z,6.50
2019-05-05T14:56:19.009Z,6.50
2019-05-05T14:58:48.946Z,6.50
2019-05-05T15:01:17.931Z,6.50
2019-05-05T15:03:46.962Z,6.60
2019-05-05T15:06:20.386Z,6.60
2019-05-05T15:09:07.005Z,6.60
2019-05-05T15:11:53.858Z,6.70
2019-05-05T15:14:24.403Z,6.60
2019-05-05T15:16:55.046Z,6.60
2019-05-05T15:19:24.824Z,6.60
2019-05-05T15:22:01.108Z,6.50
2019-05-05T15:24:33.618Z,6.50
2019-05-05T15:27:02.838Z,6.50
2019-05-05T15:29:34.363Z,6.50
2019-05-05T15:32:04.313Z,6.40
2019-05-05T15:34:37.550Z,6.50
2019-05-05T15:37:06.863Z,6.50
2019-05-05T15:39:36.959Z,6.60
2019-05-05T15:42:08.463Z,6.60
2019-05-05T15:44:38.659Z,6.60
2019-05-05T15:47:07.758Z,6.70
2019-05-05T15:49:37.413Z,6.60
2019-05-05T15:52:07.305Z,6.60
2019-05-05T15:54:36.406Z,6.60
2019-05-05T15:57:08.662Z,6.60
2019-05-05T15:59:36.505Z,6.60
2019-05-05T16:02:06.251Z,6.60
2019-05-05T16:04:35.563Z,6.60
2019-05-05T16:07:04.889Z,6.60
2019-05-05T16:09:34.039Z,6.60
2019-05-05T16:12:03.758Z,6.50
2019-05-05T16:14:34.739Z,6.50
2019-05-05T16:17:08.502Z,6.40
2019-05-05T16:19:55.619Z,6.40
2019-05-05T16:22:34.528Z,6.40
2019-05-05T16:25:14.084Z,6.30
2019-05-05T16:27:45.379Z,6.20
2019-05-05T16:30:19.182Z,6.20
2019-05-05T16:32:48.630Z,6.20
2019-05-05T16:35:17.823Z,6.20
2019-05-05T16:37:47.142Z,6.20
2019-05-05T16:40:17.032Z,6.20
2019-05-05T16:42:47.026Z,6.20
2019-05-05T16:45:17.115Z,6.10
2019-05-05T16:47:46.597Z,6.10
2019-05-05T16:50:15.922Z,6.10
2019-05-05T16:52:46.746Z,6.10
2019-05-05T16:55:17.557Z,6.10
2019-05-05T16:57:47.346Z,6.10
2019-05-05T17:00:21.406Z,6.10
2019-05-05T17:02:49.266Z,6.10
2019-05-05T17:05:18.528Z,6.10
2019-05-05T17:07:47.886Z,6.10
2019-05-05T17:10:18.037Z,6.10
2019-05-05T17:12:47.294Z,6.10
2019-05-05T17:15:28.014Z,6.00
2019-05-05T17:17:59.155Z,6.00
2019-05-05T17:20:38.946Z,5.90
2019-05-05T17:23:09.667Z,5.90
2019-05-05T17:25:38.802Z,5.90
2019-05-05T17:28:08.145Z,5.90
2019-05-05T17:30:46.386Z,5.80
2019-05-05T17:33:15.646Z,5.80
2019-05-05T17:35:44.729Z,5.80
2019-05-05T17:38:18.821Z,5.70
2019-05-05T17:40:49.699Z,5.70
2019-05-05T17:43:24.904Z,5.70
2019-05-05T17:46:03.755Z,5.70
2019-05-05T17:48:46.166Z,5.60
2019-05-05T17:51:26.018Z,5.70
2019-05-05T17:54:15.074Z,5.70
2019-05-05T17:56:44.200Z,5.70
2019-05-05T17:59:14.112Z,5.60
2019-05-05T18:01:44.217Z,5.60
2019-05-05T18:04:13.641Z,5.60
2019-05-05T18:06:47.319Z,5.60
2019-05-05T18:09:23.959Z,5.60
2019-05-05T18:12:04.323Z,5.60
2019-05-05T18:14:44.467Z,5.60
2019-05-05T18:17:13.735Z,5.60
2019-05-05T18:19:43.627Z,5.60
2019-05-05T18:22:14.032Z,5.60
2019-05-05T18:24:44.600Z,5.60
2019-05-05T18:27:14.178Z,5.60
2019-05-05T18:29:43.714Z,5.60
2019-05-05T18:32:15.220Z,5.60
2019-05-05T18:34:44.359Z,5.60
2019-05-05T18:37:14.534Z,5.60
2019-05-05T18:39:44.861Z,5.60
2019-05-05T18:42:15.488Z,5.60
2019-05-05T18:44:48.962Z,5.60
2019-05-05T18:47:19.983Z,5.60
2019-05-05T18:49:50.204Z,5.60
2019-05-05T18:52:19.531Z,5.60
2019-05-05T18:54:49.281Z,5.60
2019-05-05T18:57:19.678Z,5.60
2019-05-05T18:59:51.147Z,5.50
2019-05-05T19:02:24.602Z,5.50
2019-05-05T19:05:10.281Z,5.50
2019-05-05T19:07:54.431Z,5.60
2019-05-05T19:10:13.129Z,5.50
2019-05-05T19:12:44.284Z,5.60
2019-05-05T19:15:14.300Z,5.60
2019-05-05T19:17:47.240Z,5.60
2019-05-05T19:20:30.228Z,5.60
2019-05-05T19:23:05.725Z,5.60
2019-05-05T19:25:35.797Z,5.70
2019-05-05T19:28:05.361Z,5.70
2019-05-05T19:30:36.194Z,5.70
2019-05-05T19:33:05.738Z,5.80
2019-05-05T19:35:44.266Z,5.90
2019-05-05T19:38:05.759Z,5.90
2019-05-05T19:40:35.311Z,5.90
2019-05-05T19:43:04.965Z,5.90
2019-05-05T19:45:34.662Z,5.90
2019-05-05T19:48:06.019Z,5.90
2019-05-05T19:50:39.799Z,5.90
2019-05-05T19:53:26.749Z,5.90
2019-05-05T19:55:58.242Z,5.90
2019-05-05T19:58:34.065Z,5.90
2019-05-05T20:01:04.962Z,5.90
2019-05-05T20:03:44.793Z,5.90
2019-05-05T20:06:23.715Z,5.90
2019-05-05T20:08:58.959Z,5.90
2019-05-05T20:11:33.992Z,5.80
2019-05-05T20:14:09.989Z,5.70
2019-05-05T20:16:39.811Z,5.70
2019-05-05T20:19:14.330Z,5.70
2019-05-05T20:21:51.884Z,5.70
2019-05-05T20:24:28.372Z,5.70
2019-05-05T20:27:07.660Z,5.80
2019-05-05T20:29:38.251Z,5.80
2019-05-05T20:32:07.610Z,5.80
2019-05-05T20:34:57.324Z,5.80
2019-05-05T20:40:19.168Z,5.90
2019-05-05T20:42:54.119Z,5.90
2019-05-05T20:45:24.774Z,5.90
2019-05-05T20:47:55.383Z,5.90
2019-05-05T20:50:24.760Z,5.80
2019-05-05T20:52:54.066Z,5.60
2019-05-05T20:55:25.758Z,5.60
2019-05-05T20:57:55.067Z,5.50
2019-05-05T21:00:24.363Z,5.60
2019-05-05T21:02:53.909Z,5.60
2019-05-05T21:05:24.947Z,5.70
2019-05-05T21:07:54.108Z,5.70
2019-05-05T21:10:24.250Z,5.80
2019-05-05T21:12:54.710Z,5.80
2019-05-05T21:15:28.347Z,5.80
2019-05-05T21:17:57.823Z,5.90
2019-05-05T21:20:29.004Z,5.90
2019-05-05T21:23:00.685Z,5.90
2019-05-05T21:25:33.798Z,5.90
2019-05-05T21:28:03.809Z,5.90
2019-05-05T21:30:33.839Z,5.90
2019-05-05T21:33:04.574Z,5.80
2019-05-05T21:35:34.992Z,5.80
2019-05-05T21:38:04.976Z,5.80
2019-05-05T21:40:34.838Z,5.80
2019-05-05T21:43:11.985Z,5.80
2019-05-05T21:45:44.471Z,5.80
2019-05-05T21:48:17.147Z,5.80
2019-05-05T21:50:48.447Z,5.80
2019-05-05T21:53:21.839Z,5.80
2019-05-05T21:56:10.499Z,5.70
2019-05-05T21:58:41.235Z,5.80
2019-05-05T22:01:14.844Z,5.80
2019-05-05T22:03:44.743Z,5.80
2019-05-05T22:06:14.568Z,5.70
2019-05-05T22:08:44.740Z,5.70
2019-05-05T22:11:14.806Z,5.60
2019-05-05T22:13:44.448Z,5.60
2019-05-05T22:16:14.079Z,5.60
2019-05-05T22:18:56.118Z,5.60
2019-05-05T22:21:35.721Z,5.70
2019-05-05T22:24:17.179Z,5.70
2019-05-05T22:26:46.840Z,5.80
2019-05-05T22:29:17.190Z,5.80
2019-05-05T22:31:54.208Z,5.80
2019-05-05T22:34:24.063Z,5.90
2019-05-05T22:36:53.679Z,5.80
2019-05-05T22:39:24.375Z,5.80
2019-05-05T22:41:57.078Z,5.80
2019-05-05T22:44:26.901Z,5.80
2019-05-05T22:46:58.530Z,5.80
2019-05-05T22:49:27.721Z,5.80
2019-05-05T22:51:58.941Z,5.80
2019-05-05T22:54:28.318Z,5.70
2019-05-05T22:56:57.641Z,5.70
2019-05-05T22:59:28.260Z,5.60
2019-05-05T23:02:00.960Z,5.60
2019-05-05T23:04:31.962Z,5.60
2019-05-05T23:07:06.165Z,5.60
2019-05-05T23:09:36.039Z,5.60
2019-05-05T23:12:06.502Z,5.50
2019-05-05T23:14:35.879Z,5.40
2019-05-05T23:17:27.839Z,5.30
2019-05-05T23:20:01.519Z,5.30
2019-05-05T23:22:38.458Z,5.20
2019-05-05T23:28:03.970Z,5.10
2019-05-05T23:30:41.146Z,5.00
2019-05-05T23:33:04.686Z,5.00
2019-05-05T23:35:34.959Z,4.90
2019-05-05T23:38:04.899Z,4.90
2019-05-05T23:40:34.460Z,4.90
2019-05-05T23:43:04.978Z,4.90
2019-05-05T23:45:35.720Z,5.00
2019-05-05T23:48:05.438Z,5.00
2019-05-05T23:50:35.199Z,5.00
2019-05-05T23:53:04.878Z,5.00
2019-05-05T23:55:35.560Z,4.90
2019-05-05T23:58:05.779Z,4.90
